Time;durP1;ratioP1;P1;durP2;ratioP2;P2;SDS_P1;SDS_P2;PMS_P1;PMS_P2;Temp;Humidity;BMP_temperature;BMP_pressure;BME280_temperature;BME280_humidity;BME280_pressure;Samples;Min_cycle;Max_cycle;Signal;HPM_P1;HPM_P2
2021/12/25 00:00:14;;;;;;;2.15;0.70;;;14.00;45.20;;;;;;4094072;28;20059;-60
2021/12/25 00:02:54;;;;;;;2.33;1.00;;;13.90;43.40;;;;;;4101162;28;20078;-59
2021/12/25 00:05:16;;;;;;;3.25;0.90;;;13.80;45.10;;;;;;4094103;28;20059;-60
2021/12/25 00:07:39;;;;;;;3.92;0.98;;;13.80;44.20;;;;;;4094506;28;20460;-59
2021/12/25 00:10:01;;;;;;;2.35;1.00;;;13.80;45.70;;;;;;4109248;28;20479;-60
2021/12/25 00:12:23;;;;;;;1.50;0.80;;;13.80;47.80;;;;;;4109601;28;20057;-60
2021/12/25 00:14:47;;;;;;;3.53;1.13;;;13.80;44.80;;;;;;4110056;28;20057;-59
2021/12/25 00:17:09;;;;;;;2.08;0.88;;;13.80;46.30;;;;;;4109718;28;20471;-61
2021/12/25 00:19:31;;;;;;;3.72;0.73;;;13.80;46.20;;;;;;4094078;28;20122;-60
2021/12/25 00:21:53;;;;;;;1.35;0.93;;;13.90;45.80;;;;;;4096263;28;20070;-60
2021/12/25 00:24:14;;;;;;;4.68;0.90;;;14.00;47.90;;;;;;4110121;28;20049;-60
2021/12/25 00:26:48;;;;;;;1.65;0.93;;;14.10;48.80;;;;;;4109911;28;20463;-60
2021/12/25 00:32:12;;;;;;;2.17;0.95;;;14.30;46.60;;;;;;4096004;28;20162;-60
2021/12/25 00:34:34;;;;;;;1.33;0.90;;;14.30;46.10;;;;;;4109939;28;20164;-60
2021/12/25 00:36:56;;;;;;;2.22;0.80;;;14.40;45.90;;;;;;4109946;28;20054;-59
2021/12/25 00:39:18;;;;;;;0.95;0.70;;;14.40;46.50;;;;;;4106125;28;20054;-60
2021/12/25 00:41:41;;;;;;;1.88;0.63;;;14.50;45.50;;;;;;4096399;28;20061;-59
2021/12/25 00:44:03;;;;;;;3.30;0.77;;;14.50;44.60;;;;;;4092272;28;20403;-59
2021/12/25 00:46:25;;;;;;;2.20;0.65;;;14.60;45.50;;;;;;4092741;28;20039;-59
2021/12/25 00:48:49;;;;;;;2.50;0.82;;;14.50;45.50;;;;;;4118854;28;20560;-59
2021/12/25 00:51:11;;;;;;;0.70;0.47;;;14.50;45.30;;;;;;4109948;28;20055;-59
2021/12/25 00:53:33;;;;;;;3.10;0.77;;;14.50;45.60;;;;;;4110889;28;20078;-59
2021/12/25 00:55:56;;;;;;;1.48;0.47;;;14.50;45.00;;;;;;4108683;28;20093;-60
2021/12/25 00:58:18;;;;;;;3.63;0.60;;;14.50;48.10;;;;;;4110057;28;20042;-60
2021/12/25 01:00:42;;;;;;;3.50;1.15;;;14.40;46.90;;;;;;4122985;28;20042;-60
2021/12/25 01:03:06;;;;;;;1.00;0.60;;;14.40;48.50;;;;;;4108373;28;20085;-60
2021/12/25 01:05:31;;;;;;;1.25;0.70;;;14.50;46.90;;;;;;4122815;28;20525;-60
2021/12/25 01:07:54;;;;;;;1.35;0.50;;;14.50;44.00;;;;;;4108587;28;20121;-60
2021/12/25 01:10:21;;;;;;;1.02;0.57;;;14.50;44.20;;;;;;4122827;28;20152;-60
2021/12/25 01:12:56;;;;;;;0.63;0.60;;;14.60;47.10;;;;;;4110040;28;20046;-60
2021/12/25 01:15:23;;;;;;;1.33;0.63;;;14.70;44.10;;;;;;4111281;28;20050;-60
2021/12/25 01:20:55;;;;;;;2.55;0.98;;;14.70;43.90;;;;;;4101266;28;20054;-60
2021/12/25 01:29:27;;;;;;;0.95;0.63;;;14.60;41.70;;;;;;4124517;28;20065;-60
2021/12/25 01:32:08;;;;;;;1.42;0.70;;;14.50;43.20;;;;;;4110532;28;20043;-60
2021/12/25 01:37:37;;;;;;;0.60;0.50;;;14.40;43.50;;;;;;4112014;28;20061;-60
2021/12/25 01:40:41;;;;;;;1.13;0.60;;;14.40;41.40;;;;;;4111860;28;20050;-60
2021/12/25 01:49:12;;;;;;;2.00;0.70;;;14.70;42.10;;;;;;4124355;28;20046;-59
2021/12/25 01:51:34;;;;;;;0.93;0.60;;;14.70;41.10;;;;;;4112167;28;20059;-60
2021/12/25 01:53:57;;;;;;;1.70;0.70;;;14.70;42.30;;;;;;4124579;28;20053;-60
2021/12/25 01:56:19;;;;;;;1.17;0.60;;;14.60;42.50;;;;;;4124046;28;20120;-60
2021/12/25 01:58:42;;;;;;;1.40;0.40;;;14.60;42.90;;;;;;4124078;28;20061;-60
2021/12/25 02:01:07;;;;;;;1.27;0.63;;;14.50;42.80;;;;;;4124651;28;20069;-60
2021/12/25 02:03:31;;;;;;;1.55;0.60;;;14.50;43.20;;;;;;4112077;28;21020;-60
2021/12/25 02:05:54;;;;;;;0.75;0.40;;;14.40;44.30;;;;;;4111669;28;20051;-60
2021/12/25 02:08:24;;;;;;;0.55;0.40;;;14.30;44.00;;;;;;4109887;28;20051;-60
2021/12/25 02:10:49;;;;;;;0.30;0.30;;;14.30;44.50;;;;;;4110420;28;20110;-60
2021/12/25 02:13:13;;;;;;;0.75;0.50;;;14.20;43.10;;;;;;4110753;28;20051;-61
2021/12/25 02:15:36;;;;;;;0.85;0.55;;;14.20;42.90;;;;;;4111708;28;20144;-60
2021/12/25 02:18:10;;;;;;;1.85;0.50;;;14.10;44.10;;;;;;4111935;28;20062;-61
2021/12/25 02:21:06;;;;;;;0.45;0.45;;;14.20;45.20;;;;;;4111413;28;20078;-60
2021/12/25 02:23:31;;;;;;;1.45;0.55;;;14.30;46.70;;;;;;4110403;28;20094;-59
2021/12/25 02:25:56;;;;;;;0.95;0.52;;;14.40;46.60;;;;;;4124024;28;20042;-60
2021/12/25 02:28:19;;;;;;;0.40;0.40;;;14.50;47.10;;;;;;4123976;28;20100;-61
2021/12/25 02:30:43;;;;;;;1.20;0.40;;;14.70;45.50;;;;;;4110062;28;20078;-60
2021/12/25 02:33:05;;;;;;;0.85;0.40;;;14.80;44.30;;;;;;4123288;28;20046;-59
2021/12/25 02:35:29;;;;;;;1.92;0.40;;;15.00;48.00;;;;;;4094310;28;20114;-59
2021/12/25 02:37:52;;;;;;;1.88;0.50;;;15.10;46.70;;;;;;4097513;28;20047;-60
2021/12/25 02:40:15;;;;;;;1.13;0.43;;;15.10;42.90;;;;;;4123657;28;20046;-60
2021/12/25 02:42:38;;;;;;;0.30;0.30;;;15.10;40.00;;;;;;4123468;28;20088;-60
2021/12/25 02:45:00;;;;;;;1.08;0.50;;;15.10;41.10;;;;;;4111381;28;20134;-60
2021/12/25 02:47:22;;;;;;;1.20;0.40;;;15.10;40.30;;;;;;4123909;28;20050;-60
2021/12/25 02:49:48;;;;;;;1.30;0.65;;;15.00;43.80;;;;;;4107774;28;20465;-60
2021/12/25 02:52:10;;;;;;;2.80;0.30;;;14.90;42.30;;;;;;4107714;28;20054;-60
2021/12/25 02:54:33;;;;;;;1.05;0.60;;;14.80;40.50;;;;;;4116104;28;20512;-60
2021/12/25 02:56:55;;;;;;;1.17;0.40;;;14.70;41.50;;;;;;4110754;28;20487;-60
2021/12/25 02:59:17;;;;;;;1.98;0.70;;;14.50;41.20;;;;;;4111307;28;20378;-60
2021/12/25 03:01:55;;;;;;;0.30;0.30;;;14.50;41.80;;;;;;4109597;28;20364;-60
2021/12/25 03:04:17;;;;;;;0.80;0.55;;;14.40;41.60;;;;;;4109121;28;20051;-60
2021/12/25 03:06:39;;;;;;;1.88;0.60;;;14.30;40.70;;;;;;4111192;28;20057;-59
2021/12/25 03:09:02;;;;;;;0.90;0.50;;;14.30;41.20;;;;;;4109900;28;20059;-60
2021/12/25 03:11:26;;;;;;;1.40;0.55;;;14.20;42.00;;;;;;4111317;28;20058;-60
2021/12/25 03:13:58;;;;;;;1.52;1.02;;;14.20;42.00;;;;;;4122296;28;20053;-58
2021/12/25 03:16:24;;;;;;;1.42;0.50;;;14.20;41.80;;;;;;4108963;28;20823;-59
2021/12/25 03:18:50;;;;;;;2.67;0.68;;;14.20;42.00;;;;;;4123139;28;20057;-59
2021/12/25 03:21:13;;;;;;;1.75;0.50;;;14.30;40.20;;;;;;4123277;28;20042;-60
2021/12/25 03:23:37;;;;;;;0.40;0.40;;;14.30;40.50;;;;;;4109557;28;20084;-60
2021/12/25 03:26:00;;;;;;;1.35;0.30;;;14.40;40.60;;;;;;4110390;28;20050;-60
2021/12/25 03:28:29;;;;;;;1.50;0.40;;;14.40;43.70;;;;;;4123279;28;20490;-60
2021/12/25 03:30:52;;;;;;;2.95;0.60;;;14.50;43.50;;;;;;4123734;28;20069;-60
2021/12/25 03:33:18;;;;;;;2.40;0.40;;;14.60;41.40;;;;;;4109403;28;20122;-60
2021/12/25 03:35:41;;;;;;;1.63;0.40;;;14.80;40.80;;;;;;4109804;28;20049;-60
2021/12/25 03:38:06;;;;;;;0.75;0.40;;;14.90;41.90;;;;;;4123024;28;20057;-60
2021/12/25 03:40:28;;;;;;;0.32;0.30;;;15.00;44.30;;;;;;4109384;28;20919;-60
2021/12/25 03:42:51;;;;;;;0.90;0.45;;;15.20;43.70;;;;;;4107575;28;20046;-60
2021/12/25 03:45:15;;;;;;;0.40;0.40;;;15.20;41.20;;;;;;4095008;28;20137;-60
2021/12/25 03:47:39;;;;;;;0.98;0.63;;;15.30;42.10;;;;;;4078998;28;20400;-60
2021/12/25 03:58:04;;;;;;;2.22;0.95;;;15.60;39.80;;;;;;4107036;28;20061;-60
2021/12/25 04:00:30;;;;;;;1.08;0.52;;;15.60;42.80;;;;;;4093647;28;20051;-61
2021/12/25 04:02:56;;;;;;;0.82;0.47;;;15.50;39.90;;;;;;4107514;28;20054;-60
2021/12/25 04:05:39;;;;;;;1.40;0.40;;;15.40;42.20;;;;;;4107120;28;20520;-59
2021/12/25 04:08:05;;;;;;;0.60;0.40;;;15.30;41.80;;;;;;4094756;28;20130;-60
2021/12/25 04:10:28;;;;;;;0.60;0.40;;;15.30;44.20;;;;;;4094541;28;20487;-60
2021/12/25 04:12:51;;;;;;;1.80;0.50;;;15.30;41.80;;;;;;4107964;28;20051;-61
2021/12/25 04:15:13;;;;;;;0.90;0.50;;;15.40;42.30;;;;;;4094157;28;20055;-60
2021/12/25 04:17:37;;;;;;;0.88;0.50;;;15.30;41.20;;;;;;4107874;28;20105;-60
2021/12/25 04:20:02;;;;;;;0.40;0.40;;;15.30;41.80;;;;;;4096164;28;20727;-60
2021/12/25 04:22:30;;;;;;;0.90;0.40;;;15.30;40.20;;;;;;4122518;28;20050;-60
2021/12/25 04:24:52;;;;;;;2.95;0.63;;;15.20;41.90;;;;;;4108780;28;20047;-62
2021/12/25 04:27:16;;;;;;;0.45;0.40;;;15.20;39.80;;;;;;4092790;28;20074;-61
2021/12/25 04:29:43;;;;;;;0.75;0.55;;;15.30;39.10;;;;;;4105190;28;20057;-60
2021/12/25 04:47:40;;;;;;;1.35;0.35;;;15.30;42.10;;;;;;4122133;28;20481;-60
2021/12/25 05:02:05;;;;;;;0.60;0.40;;;15.50;48.50;;;;;;4125465;28;20054;-60
2021/12/25 05:04:50;;;;;;;0.73;0.55;;;15.50;49.20;;;;;;4112358;28;20059;-60
2021/12/25 05:07:18;;;;;;;2.65;0.55;;;15.40;50.30;;;;;;4110915;28;20138;-59
2021/12/25 05:09:40;;;;;;;0.77;0.40;;;15.30;45.70;;;;;;4111249;28;20067;-59
2021/12/25 05:12:02;;;;;;;0.30;0.30;;;15.20;43.20;;;;;;4112846;28;20518;-59
2021/12/25 05:14:27;;;;;;;1.10;0.65;;;15.10;42.90;;;;;;4124986;28;20482;-59
2021/12/25 05:16:49;;;;;;;0.45;0.45;;;15.00;43.20;;;;;;4112863;28;20043;-59
2021/12/25 05:19:11;;;;;;;0.52;0.40;;;15.00;45.40;;;;;;4111107;28;20059;-59
2021/12/25 05:21:33;;;;;;;0.45;0.32;;;14.90;44.00;;;;;;4112877;28;20078;-59
2021/12/25 05:23:58;;;;;;;0.70;0.50;;;14.90;44.90;;;;;;4110923;28;20118;-59
2021/12/25 05:26:24;;;;;;;1.27;0.65;;;15.00;44.00;;;;;;4111755;28;20043;-59
2021/12/25 05:28:56;;;;;;;1.85;0.70;;;15.00;43.40;;;;;;4124672;28;20054;-59
2021/12/25 05:31:20;;;;;;;1.15;0.50;;;15.00;45.00;;;;;;4111049;28;20090;-59
2021/12/25 05:33:59;;;;;;;0.85;0.43;;;15.00;42.20;;;;;;4124766;28;20050;-59
2021/12/25 05:36:43;;;;;;;0.82;0.43;;;15.10;45.30;;;;;;4124956;28;20046;-59
2021/12/25 05:39:26;;;;;;;0.63;0.30;;;15.10;45.00;;;;;;4112187;28;20757;-59
2021/12/25 05:41:49;;;;;;;1.70;0.60;;;15.30;49.20;;;;;;4124658;28;20050;-59
2021/12/25 05:44:17;;;;;;;0.63;0.50;;;15.40;45.50;;;;;;4124592;28;20046;-59
2021/12/25 05:46:57;;;;;;;0.50;0.30;;;15.40;45.20;;;;;;4110304;28;20054;-59
2021/12/25 05:49:20;;;;;;;0.50;0.45;;;15.40;42.00;;;;;;4112185;28;20403;-59
2021/12/25 05:52:01;;;;;;;2.00;0.50;;;15.30;46.00;;;;;;4112125;28;20137;-59
2021/12/25 05:54:38;;;;;;;1.05;0.50;;;15.20;47.50;;;;;;4110573;28;20066;-60
2021/12/25 05:57:23;;;;;;;0.40;0.40;;;15.10;41.80;;;;;;4111276;28;20053;-59
2021/12/25 06:00:11;;;;;;;0.65;0.50;;;15.10;43.40;;;;;;4124051;28;20049;-59
2021/12/25 06:02:36;;;;;;;2.15;0.35;;;15.10;40.80;;;;;;4111879;28;20054;-59
2021/12/25 06:05:03;;;;;;;0.90;0.60;;;15.10;40.20;;;;;;4108566;28;20479;-59
2021/12/25 06:07:25;;;;;;;0.65;0.45;;;15.10;40.20;;;;;;4098991;28;20053;-59
2021/12/25 06:09:48;;;;;;;3.33;0.50;;;15.10;41.60;;;;;;4110570;28;20074;-59
2021/12/25 06:12:14;;;;;;;1.67;0.60;;;15.10;42.10;;;;;;4110085;28;20075;-58
2021/12/25 06:14:36;;;;;;;1.10;0.50;;;15.10;40.50;;;;;;4110450;28;20070;-58
2021/12/25 06:17:05;;;;;;;1.00;0.55;;;15.10;42.10;;;;;;4123223;28;20519;-59
2021/12/25 06:19:31;;;;;;;2.25;0.50;;;15.00;40.20;;;;;;4110298;28;20122;-59
2021/12/25 06:22:16;;;;;;;0.50;0.50;;;15.00;39.30;;;;;;4109803;28;20054;-58
2021/12/25 06:24:58;;;;;;;1.25;0.50;;;15.10;44.30;;;;;;4096021;28;20054;-59
2021/12/25 06:27:49;;;;;;;0.80;0.50;;;15.10;41.90;;;;;;4078929;28;20079;-59
2021/12/25 06:30:22;;;;;;;0.82;0.60;;;15.10;41.60;;;;;;4094004;28;20062;-60
2021/12/25 06:33:04;;;;;;;2.20;0.50;;;15.20;46.30;;;;;;4085930;28;20134;-60
2021/12/25 06:35:45;;;;;;;0.90;0.30;;;15.30;47.30;;;;;;4111439;28;20554;-59
2021/12/25 06:38:13;;;;;;;0.90;0.40;;;15.40;47.50;;;;;;4111229;28;20047;-59
2021/12/25 06:40:55;;;;;;;1.33;0.50;;;15.40;46.80;;;;;;4111823;28;20170;-59
2021/12/25 06:43:17;;;;;;;1.10;0.40;;;15.40;45.50;;;;;;4109879;28;20047;-59
2021/12/25 06:45:40;;;;;;;0.77;0.45;;;15.40;41.70;;;;;;4124030;28;20466;-60
2021/12/25 06:48:02;;;;;;;0.73;0.30;;;15.30;42.50;;;;;;4123601;28;20053;-59
2021/12/25 06:50:43;;;;;;;0.60;0.60;;;15.20;46.60;;;;;;4111383;28;20145;-59
2021/12/25 06:53:24;;;;;;;0.30;0.30;;;15.10;46.50;;;;;;4110888;28;20399;-60
2021/12/25 06:56:01;;;;;;;0.50;0.50;;;15.00;48.30;;;;;;4123487;28;20270;-59
2021/12/25 06:58:39;;;;;;;1.40;0.60;;;15.00;50.40;;;;;;4107288;28;20126;-59
2021/12/25 07:01:01;;;;;;;0.68;0.65;;;15.00;48.20;;;;;;4123336;28;20415;-59
2021/12/25 07:03:23;;;;;;;1.25;0.50;;;15.00;47.50;;;;;;4123806;28;20134;-60
2021/12/25 07:06:04;;;;;;;1.63;0.75;;;15.00;48.10;;;;;;4111383;28;20452;-60
2021/12/25 07:08:31;;;;;;;1.38;0.50;;;15.10;47.70;;;;;;4093476;28;20062;-59
2021/12/25 07:11:27;;;;;;;1.50;0.40;;;15.20;50.90;;;;;;4094987;28;20431;-59
2021/12/25 07:14:04;;;;;;;1.17;0.60;;;15.20;51.10;;;;;;4109612;28;20545;-59
2021/12/25 07:16:44;;;;;;;1.08;0.55;;;15.30;50.50;;;;;;4110867;28;20051;-59
2021/12/25 07:19:21;;;;;;;5.78;0.70;;;15.40;51.50;;;;;;4109433;28;20086;-59
2021/12/25 07:21:57;;;;;;;1.52;0.70;;;15.50;46.50;;;;;;4123102;28;20050;-60
2021/12/25 07:24:40;;;;;;;1.00;0.47;;;15.50;47.80;;;;;;4095002;28;20078;-60
2021/12/25 07:27:26;;;;;;;0.32;0.30;;;15.50;50.60;;;;;;4104831;28;20054;-60
2021/12/25 07:29:49;;;;;;;1.42;0.60;;;15.50;52.10;;;;;;4110393;28;20133;-61
2021/12/25 07:32:12;;;;;;;1.52;0.40;;;15.40;48.00;;;;;;4095811;28;20054;-60
2021/12/25 07:34:36;;;;;;;1.67;0.55;;;15.40;49.90;;;;;;4108279;28;20051;-60
2021/12/25 07:36:58;;;;;;;0.88;0.38;;;15.30;47.90;;;;;;4110544;28;20120;-59
2021/12/25 07:39:20;;;;;;;0.90;0.40;;;15.30;48.80;;;;;;4110850;28;20054;-60
2021/12/25 07:41:42;;;;;;;1.15;0.50;;;15.30;50.00;;;;;;4110744;28;20054;-59
2021/12/25 07:44:17;;;;;;;0.85;0.68;;;15.20;48.90;;;;;;4107459;28;20062;-60
2021/12/25 07:46:45;;;;;;;0.50;0.50;;;15.20;47.70;;;;;;4100693;28;20394;-59
2021/12/25 07:49:10;;;;;;;0.50;0.50;;;15.10;49.30;;;;;;4110401;28;20051;-60
2021/12/25 07:51:32;;;;;;;2.28;0.73;;;15.20;45.70;;;;;;4110514;28;20157;-59
2021/12/25 07:53:54;;;;;;;1.25;0.70;;;15.20;41.90;;;;;;4096815;28;20055;-60
2021/12/25 07:56:16;;;;;;;1.67;0.70;;;15.20;43.60;;;;;;4122034;28;20518;-59
2021/12/25 07:58:39;;;;;;;2.33;0.50;;;15.20;42.60;;;;;;4110709;28;20050;-61
2021/12/25 08:01:02;;;;;;;2.15;0.70;;;15.20;42.40;;;;;;4109994;28;20055;-60
2021/12/25 08:03:25;;;;;;;1.42;0.60;;;15.10;42.30;;;;;;4109379;28;20454;-60
2021/12/25 08:05:47;;;;;;;1.67;0.50;;;15.20;44.20;;;;;;4110287;28;20054;-59
2021/12/25 08:08:11;;;;;;;1.33;0.73;;;15.30;45.60;;;;;;4110338;28;20110;-59
2021/12/25 08:10:33;;;;;;;2.25;1.30;;;15.40;46.40;;;;;;4110745;28;20047;-60
2021/12/25 08:12:58;;;;;;;1.95;0.77;;;15.50;44.70;;;;;;4121842;28;20050;-59
2021/12/25 08:15:23;;;;;;;1.85;0.60;;;15.40;42.40;;;;;;4123294;28;20065;-59
2021/12/25 08:17:47;;;;;;;0.80;0.80;;;15.40;43.30;;;;;;4123606;28;20762;-59
2021/12/25 08:20:26;;;;;;;1.13;0.90;;;15.30;42.60;;;;;;4123706;28;20375;-58
2021/12/25 08:23:08;;;;;;;1.45;0.70;;;15.10;44.20;;;;;;4125511;28;20474;-59
2021/12/25 08:25:49;;;;;;;1.10;0.47;;;14.90;46.20;;;;;;4127048;28;20409;-59
2021/12/25 08:28:30;;;;;;;0.43;0.43;;;14.80;45.90;;;;;;4126166;28;20144;-59
2021/12/25 08:31:14;;;;;;;1.58;0.73;;;14.70;43.60;;;;;;4125750;28;20116;-59
2021/12/25 08:33:56;;;;;;;1.67;0.80;;;14.50;42.20;;;;;;4124984;28;20477;-58
2021/12/25 08:36:54;;;;;;;1.30;0.70;;;14.40;41.60;;;;;;4121789;28;20046;-59
2021/12/25 08:39:16;;;;;;;2.70;0.55;;;14.30;45.80;;;;;;4127176;28;20048;-59
2021/12/25 08:41:38;;;;;;;1.25;0.50;;;14.40;49.10;;;;;;4126097;28;20390;-58
2021/12/25 08:44:07;;;;;;;1.52;0.65;;;14.50;51.60;;;;;;4126203;28;20133;-58
2021/12/25 08:46:44;;;;;;;0.52;0.50;;;14.60;53.30;;;;;;4127281;28;21231;-58
2021/12/25 08:49:08;;;;;;;0.60;0.40;;;14.80;49.10;;;;;;4126558;28;20082;-58
2021/12/25 08:51:30;;;;;;;1.50;0.70;;;15.00;46.70;;;;;;4124576;28;20050;-59
2021/12/25 08:53:52;;;;;;;7.18;0.75;;;15.10;48.40;;;;;;4126629;28;20054;-58
2021/12/25 08:56:14;;;;;;;1.52;0.60;;;15.20;49.10;;;;;;4124744;28;20042;-59
2021/12/25 08:58:37;;;;;;;0.95;0.57;;;15.40;45.70;;;;;;4126044;28;20046;-59
2021/12/25 09:01:01;;;;;;;1.50;0.70;;;15.50;45.80;;;;;;4124520;28;20054;-59
2021/12/25 09:03:25;;;;;;;0.93;0.85;;;15.70;46.80;;;;;;4126326;28;20065;-59
2021/12/25 09:05:49;;;;;;;2.30;0.85;;;15.80;49.50;;;;;;4126387;28;20104;-59
2021/12/25 09:08:11;;;;;;;2.53;1.13;;;15.90;50.50;;;;;;4121215;28;20636;-60
2021/12/25 09:10:35;;;;;;;1.73;0.50;;;16.00;50.10;;;;;;4124149;28;20046;-60
2021/12/25 09:12:57;;;;;;;0.68;0.47;;;16.10;48.60;;;;;;4126057;28;20042;-59
2021/12/25 09:15:19;;;;;;;0.73;0.60;;;16.20;50.70;;;;;;4126084;28;20081;-59
2021/12/25 09:17:42;;;;;;;1.52;0.80;;;16.20;46.10;;;;;;4123552;28;20453;-60
2021/12/25 09:20:07;;;;;;;0.68;0.60;;;16.20;46.70;;;;;;4124686;28;20066;-59
2021/12/25 09:22:30;;;;;;;1.25;0.55;;;16.10;43.30;;;;;;4125821;28;20062;-60
2021/12/25 09:24:53;;;;;;;1.60;0.60;;;16.10;46.80;;;;;;4122550;28;20046;-61
2021/12/25 09:27:15;;;;;;;0.75;0.75;;;16.00;48.60;;;;;;4124532;28;20398;-59
2021/12/25 09:29:45;;;;;;;0.85;0.70;;;15.90;48.20;;;;;;4112751;28;20053;-59
2021/12/25 09:32:14;;;;;;;1.75;0.80;;;15.90;50.80;;;;;;4097958;28;20058;-59
2021/12/25 09:34:39;;;;;;;2.85;0.70;;;16.00;48.10;;;;;;4102228;28;20477;-59
2021/12/25 09:37:01;;;;;;;3.30;0.95;;;16.00;50.40;;;;;;4132902;28;20058;-58
2021/12/25 09:39:25;;;;;;;2.10;0.75;;;16.00;51.30;;;;;;4122984;28;20145;-59
2021/12/25 09:41:47;;;;;;;1.55;0.95;;;16.00;50.70;;;;;;4125688;28;20047;-59
2021/12/25 09:44:09;;;;;;;3.10;1.00;;;15.90;51.00;;;;;;4125681;28;20053;-59
2021/12/25 09:46:32;;;;;;;2.35;0.63;;;15.80;48.60;;;;;;4126082;28;20137;-60
2021/12/25 09:48:54;;;;;;;3.00;0.98;;;15.70;51.60;;;;;;4124057;28;20506;-59
2021/12/25 09:51:17;;;;;;;0.63;0.63;;;15.50;50.90;;;;;;4125518;28;20519;-59
2021/12/25 09:53:39;;;;;;;0.77;0.70;;;15.40;51.20;;;;;;4125670;28;20053;-59
2021/12/25 09:56:04;;;;;;;0.90;0.77;;;15.20;51.80;;;;;;4125515;28;21037;-59
2021/12/25 09:58:30;;;;;;;0.68;0.60;;;15.10;53.00;;;;;;4123537;28;20478;-59
2021/12/25 10:00:53;;;;;;;2.28;0.70;;;15.00;54.40;;;;;;4125680;28;20137;-59
2021/12/25 10:03:17;;;;;;;1.17;0.90;;;14.90;54.50;;;;;;4126027;28;20042;-59
2021/12/25 10:05:43;;;;;;;2.90;0.88;;;14.90;53.10;;;;;;4125488;28;20132;-59
2021/12/25 10:08:07;;;;;;;4.45;0.70;;;14.90;54.20;;;;;;4124604;28;20145;-59
2021/12/25 10:10:40;;;;;;;1.75;0.70;;;15.00;53.80;;;;;;4125633;28;20092;-59
2021/12/25 10:13:03;;;;;;;1.90;0.70;;;15.30;53.40;;;;;;4125354;28;20039;-59
2021/12/25 10:15:30;;;;;;;0.60;0.57;;;15.70;52.50;;;;;;4125896;28;20054;-59
2021/12/25 10:17:53;;;;;;;1.48;0.60;;;16.20;52.90;;;;;;4123336;28;20113;-59
2021/12/25 10:20:18;;;;;;;0.50;0.50;;;16.60;51.90;;;;;;4125311;28;20080;-60
2021/12/25 10:22:57;;;;;;;2.67;0.80;;;17.00;51.00;;;;;;4125569;28;20042;-58
2021/12/25 10:25:19;;;;;;;0.70;0.70;;;17.20;48.40;;;;;;4124436;28;20077;-59
2021/12/25 10:27:50;;;;;;;1.88;0.70;;;17.30;50.30;;;;;;4124654;28;20058;-60
2021/12/25 10:30:13;;;;;;;1.17;0.63;;;17.30;49.70;;;;;;4124087;28;20489;-59
2021/12/25 10:32:39;;;;;;;0.60;0.57;;;17.10;50.00;;;;;;4124417;28;20129;-60
2021/12/25 10:35:13;;;;;;;3.97;0.65;;;17.00;50.60;;;;;;4124730;28;20124;-59
2021/12/25 10:37:41;;;;;;;1.25;0.60;;;16.90;49.90;;;;;;4123615;28;20050;-59
2021/12/25 10:40:21;;;;;;;3.58;1.05;;;16.80;51.10;;;;;;4125278;28;20064;-59
2021/12/25 10:42:45;;;;;;;3.38;0.85;;;16.80;51.00;;;;;;4124961;28;20054;-59
2021/12/25 10:45:15;;;;;;;1.77;0.80;;;16.70;51.50;;;;;;4136465;28;20061;-59
2021/12/25 10:47:37;;;;;;;0.77;0.50;;;16.60;51.60;;;;;;4121972;28;20050;-59
2021/12/25 10:50:02;;;;;;;1.23;0.50;;;16.40;51.90;;;;;;4124876;28;20490;-58
2021/12/25 10:52:28;;;;;;;3.63;1.30;;;16.30;52.00;;;;;;4124386;28;20054;-59
2021/12/25 10:54:55;;;;;;;1.38;0.65;;;16.10;52.90;;;;;;4124717;28;20401;-59
2021/12/25 10:57:34;;;;;;;4.38;1.00;;;16.00;53.50;;;;;;4122709;28;20443;-59
2021/12/25 10:59:56;;;;;;;2.03;0.85;;;16.00;53.80;;;;;;4124746;28;20038;-60
2021/12/25 11:02:31;;;;;;;1.20;0.90;;;16.00;54.00;;;;;;4123603;28;20053;-58
2021/12/25 11:04:53;;;;;;;2.78;0.88;;;16.10;53.80;;;;;;4123237;28;20113;-59
2021/12/25 11:07:17;;;;;;;1.65;1.00;;;16.20;53.80;;;;;;4123082;28;20560;-59
2021/12/25 11:09:39;;;;;;;2.25;1.08;;;16.40;53.70;;;;;;4124543;28;20058;-59
2021/12/25 11:12:22;;;;;;;2.65;0.93;;;16.50;53.30;;;;;;4123944;28;20045;-58
2021/12/25 11:14:46;;;;;;;3.10;0.88;;;16.70;52.90;;;;;;4124300;28;20050;-59
2021/12/25 11:17:22;;;;;;;2.50;0.93;;;16.80;52.90;;;;;;4123181;28;20129;-59
2021/12/25 11:19:57;;;;;;;0.90;0.80;;;16.80;52.50;;;;;;4122166;28;20046;-59
2021/12/25 11:22:19;;;;;;;1.90;0.93;;;16.90;52.40;;;;;;4124167;28;20085;-60
2021/12/25 11:24:43;;;;;;;3.47;0.98;;;16.90;52.60;;;;;;4124538;28;20128;-59
2021/12/25 11:27:07;;;;;;;4.35;1.20;;;16.90;52.50;;;;;;4123534;28;20066;-59
2021/12/25 11:29:33;;;;;;;2.50;0.80;;;17.00;52.20;;;;;;4124201;28;20109;-59
2021/12/25 11:31:56;;;;;;;1.23;0.82;;;17.00;52.40;;;;;;4124287;28;20050;-59
2021/12/25 11:34:19;;;;;;;1.48;0.75;;;17.10;51.60;;;;;;4123929;28;20057;-59
2021/12/25 11:36:48;;;;;;;3.65;0.93;;;17.10;50.10;;;;;;4122275;28;20881;-59
2021/12/25 11:39:10;;;;;;;4.13;0.60;;;17.10;51.70;;;;;;4126354;28;20236;-59
2021/12/25 11:41:35;;;;;;;1.65;0.73;;;17.00;52.00;;;;;;4124095;28;20049;-59
2021/12/25 11:43:57;;;;;;;3.20;1.00;;;16.90;51.20;;;;;;4124294;28;20945;-59
2021/12/25 11:46:19;;;;;;;1.02;0.85;;;16.80;51.00;;;;;;4122615;28;20065;-59
2021/12/25 11:48:42;;;;;;;3.22;1.33;;;16.70;51.80;;;;;;4122699;28;20043;-59
2021/12/25 11:51:06;;;;;;;0.73;0.73;;;16.50;52.90;;;;;;4124166;28;20149;-59
2021/12/25 11:54:04;;;;;;;1.13;1.00;;;16.40;52.50;;;;;;4123923;28;20062;-58
2021/12/25 11:56:34;;;;;;;2.28;1.30;;;16.40;53.60;;;;;;4122251;28;20061;-59
2021/12/25 11:58:58;;;;;;;1.70;1.25;;;16.30;54.30;;;;;;4122380;28;20050;-59
2021/12/25 12:01:24;;;;;;;1.10;1.00;;;16.30;54.50;;;;;;4134700;28;20038;-59
2021/12/25 12:03:52;;;;;;;2.72;1.20;;;16.40;53.00;;;;;;4123998;28;20157;-60
2021/12/25 12:06:15;;;;;;;5.72;1.67;;;16.40;53.20;;;;;;4135684;28;20504;-59
2021/12/25 12:09:07;;;;;;;3.22;1.48;;;16.40;54.10;;;;;;4123916;28;20069;-60
2021/12/25 12:11:48;;;;;;;4.82;1.42;;;16.30;54.10;;;;;;4122158;28;20549;-59
2021/12/25 12:14:15;;;;;;;3.45;1.02;;;16.30;54.80;;;;;;4123366;28;20061;-58
2021/12/25 12:16:49;;;;;;;1.52;0.98;;;16.20;53.90;;;;;;4122327;28;20070;-59
2021/12/25 12:19:50;;;;;;;1.35;1.00;;;16.10;54.40;;;;;;4123101;28;20054;-59
2021/12/25 12:22:49;;;;;;;1.75;1.33;;;16.10;54.90;;;;;;4123175;28;20054;-61
2021/12/25 12:25:23;;;;;;;2.75;1.25;;;16.00;55.10;;;;;;4123438;28;20058;-60
2021/12/25 12:27:50;;;;;;;1.00;0.70;;;15.90;55.90;;;;;;4121867;28;21099;-60
2021/12/25 12:30:14;;;;;;;3.70;0.77;;;15.80;54.20;;;;;;4123280;28;20057;-60
2021/12/25 12:32:43;;;;;;;3.28;1.30;;;15.70;52.80;;;;;;4121682;28;20043;-61
2021/12/25 12:35:30;;;;;;;3.33;1.05;;;15.60;54.80;;;;;;4122913;28;20486;-62
2021/12/25 12:37:52;;;;;;;2.90;1.20;;;15.50;55.20;;;;;;4120589;28;20049;-57
2021/12/25 12:40:30;;;;;;;4.95;0.90;;;15.40;56.40;;;;;;4123573;28;20054;-58
2021/12/25 12:42:57;;;;;;;2.47;0.70;;;15.30;56.50;;;;;;4123486;28;20066;-58
2021/12/25 12:45:23;;;;;;;2.05;1.23;;;15.20;55.80;;;;;;4123812;28;20054;-57
2021/12/25 12:48:10;;;;;;;7.72;1.17;;;15.20;52.90;;;;;;4123474;28;20050;-57
2021/12/25 12:50:34;;;;;;;3.72;1.13;;;15.20;55.10;;;;;;4123635;28;20046;-57
2021/12/25 12:53:01;;;;;;;3.08;1.02;;;15.10;56.80;;;;;;4123754;28;20058;-58
2021/12/25 12:55:29;;;;;;;2.47;1.25;;;15.00;56.10;;;;;;4123650;28;20046;-58
2021/12/25 12:58:07;;;;;;;1.83;0.90;;;15.00;50.10;;;;;;4123665;28;20065;-57
2021/12/25 13:00:29;;;;;;;2.83;0.88;;;14.90;50.90;;;;;;4124147;28;20054;-58
2021/12/25 13:02:54;;;;;;;1.50;1.20;;;14.80;54.10;;;;;;4123390;28;20050;-57
2021/12/25 13:05:21;;;;;;;4.70;0.88;;;14.70;53.40;;;;;;4124248;28;20482;-56
2021/12/25 13:07:45;;;;;;;1.30;1.08;;;14.70;54.00;;;;;;4123666;28;20073;-58
2021/12/25 13:10:16;;;;;;;1.15;0.90;;;14.70;51.80;;;;;;4126792;28;20148;-57
2021/12/25 13:12:44;;;;;;;2.72;1.38;;;14.80;51.10;;;;;;4127182;28;20054;-57
2021/12/25 13:15:12;;;;;;;1.00;0.85;;;14.90;51.40;;;;;;4126161;28;20054;-57
2021/12/25 13:17:34;;;;;;;3.15;1.35;;;14.90;56.20;;;;;;4126987;28;20057;-58
2021/12/25 13:19:56;;;;;;;0.88;0.77;;;14.90;51.50;;;;;;4124483;28;20639;-58
2021/12/25 13:22:17;;;;;;;4.25;0.95;;;14.90;52.60;;;;;;4126637;28;20549;-57
2021/12/25 13:24:40;;;;;;;1.45;0.90;;;15.00;50.00;;;;;;4127255;28;20137;-58
2021/12/25 13:27:02;;;;;;;2.42;0.90;;;15.00;52.80;;;;;;4126588;28;20058;-58
2021/12/25 13:29:25;;;;;;;1.33;1.20;;;14.90;50.60;;;;;;4125957;28;20058;-57
2021/12/25 13:31:48;;;;;;;2.22;1.08;;;14.90;52.20;;;;;;4123460;28;20046;-57
2021/12/25 13:34:15;;;;;;;1.75;1.10;;;14.80;50.50;;;;;;4124699;28;20405;-58
2021/12/25 13:36:37;;;;;;;2.05;0.90;;;14.80;47.90;;;;;;4122527;28;20447;-59
2021/12/25 13:39:03;;;;;;;1.77;0.95;;;14.80;51.60;;;;;;4126572;28;20179;-58
2021/12/25 13:41:33;;;;;;;1.23;0.85;;;14.80;46.30;;;;;;4124814;28;20042;-58
2021/12/25 13:44:05;;;;;;;1.20;0.75;;;14.80;47.60;;;;;;4123733;28;20969;-58
2021/12/25 13:46:38;;;;;;;3.22;1.08;;;14.80;46.20;;;;;;4123002;28;20050;-58